createdAt,value
2023-05-16T02:25:34.768Z,0.02
2023-05-16T02:34:50.543Z,0.03
2023-05-16T02:39:37.772Z,0.04
2023-05-16T02:41:40.334Z,0.05
2023-05-16T02:44:30.982Z,0.07
2023-05-16T02:47:07.624Z,0.11
2023-05-16T02:49:30.266Z,0.15
2023-05-16T02:51:39.174Z,0.2
2023-05-16T02:54:35.836Z,0.3
2023-05-16T02:57:18.002Z,0.43
2023-05-16T02:59:46.669Z,0.57
2023-05-16T03:02:01.730Z,0.75
2023-05-16T03:04:02.726Z,0.97
2023-05-16T03:06:51.311Z,1.48
2023-05-16T03:09:26.230Z,2.2
2023-05-16T03:11:47.208Z,3.06
2023-05-16T03:13:54.182Z,4.03
2023-05-16T03:16:49.289Z,6.12
2023-05-16T03:19:30.298Z,8.48
2023-05-16T03:21:57.407Z,12.18
2023-05-16T03:24:10.479Z,15.73
2023-05-16T03:26:09.723Z,20.36
2023-05-16T03:28:56.890Z,28.47
2023-05-16T03:31:30.008Z,36.78
2023-05-16T03:33:49.368Z,46.88
2023-05-16T03:35:54.704Z,56.26
2023-05-16T03:38:47.891Z,68.56
2023-05-16T03:41:27.327Z,74.66
2023-05-16T03:43:52.803Z,78.04
2023-05-16T03:46:04.295Z,79.54
2023-05-16T03:48:01.372Z,79.82
2023-05-16T03:50:46.715Z,80.56
2023-05-16T03:52:59.248Z,89.16
2023-05-16T03:54:57.995Z,98.24
2023-05-16T03:57:44.213Z,113.28
2023-05-16T04:00:16.741Z,130
2023-05-16T04:02:35.406Z,158.64
2023-05-16T04:04:39.819Z,182.4
2023-05-16T04:07:32.613Z,222.7
2023-05-16T04:10:10.951Z,259.5
2023-05-16T04:12:35.485Z,294.4
2023-05-16T04:14:46.248Z,316.9
2023-05-16T04:16:43.103Z,333.7
2023-05-16T04:19:27.627Z,353.2
2023-05-16T04:21:58.234Z,344.9
2023-05-16T04:24:15.017Z,333.1
2023-05-16T04:26:17.814Z,333.6
2023-05-16T04:29:08.357Z,339.2
2023-05-16T04:31:45.208Z,382.7
2023-05-16T04:34:08.032Z,479.8
2023-05-16T04:36:16.893Z,532.8
2023-05-16T04:39:13.201Z,606.7
2023-05-16T04:41:56.267Z,657.9
2023-05-16T04:44:24.848Z,636.3
2023-05-16T04:46:39.720Z,707.5
2023-05-16T04:48:40.802Z,776.3
2023-05-16T04:51:29.681Z,908.1
2023-05-16T04:54:04.576Z,965.7
2023-05-16T04:56:25.714Z,884.4
2023-05-16T04:58:32.884Z,706.2
2023-05-16T05:01:27.784Z,708.1
2023-05-16T05:04:08.951Z,722.8
2023-05-16T05:06:36.131Z,743.3
2023-05-16T05:08:49.314Z,751.3
2023-05-16T05:10:48.730Z,752.9
2023-05-16T05:13:35.987Z,867.2
2023-05-16T05:16:09.481Z,861.1
2023-05-16T05:18:28.356Z,1040
2023-05-16T05:20:33.770Z,1032.9
2023-05-16T05:23:27.096Z,1070.4
2023-05-16T05:26:06.473Z,1277.1
2023-05-16T05:28:32.031Z,1187.5
2023-05-16T05:30:43.429Z,1104.3
2023-05-16T05:32:40.801Z,704.6
2023-05-16T05:35:26.549Z,624
2023-05-16T05:37:57.706Z,515.2
2023-05-16T05:40:15.207Z,550
2023-05-16T05:42:18.893Z,662.7
2023-05-16T05:45:10.337Z,483.8
2023-05-16T05:47:47.863Z,380.4
2023-05-16T05:50:11.343Z,375.6
2023-05-16T05:52:21.147Z,354.8
2023-05-16T05:54:17.006Z,432
2023-05-16T05:57:00.619Z,636.9
2023-05-16T05:59:30.566Z,938.2
2023-05-16T06:01:46.453Z,992.6
2023-05-16T06:03:48.275Z,948.4
2023-05-16T06:06:38.306Z,1360
2023-05-16T06:09:14.371Z,1851
2023-05-16T06:11:36.299Z,1948
2023-05-16T06:13:44.378Z,2091
2023-05-16T06:16:40.353Z,2356
2023-05-16T06:19:22.385Z,2134
2023-05-16T06:21:50.023Z,2523
2023-05-16T06:24:04.491Z,2491
2023-05-16T06:26:04.864Z,2673
2023-05-16T06:28:53.140Z,2441
2023-05-16T06:31:27.635Z,2552
2023-05-16T06:33:47.860Z,2060
2023-05-16T06:35:54.234Z,1943
2023-05-16T06:38:48.685Z,1718
2023-05-16T06:41:29.292Z,1381.1
2023-05-16T06:43:55.870Z,1194.8
2023-05-16T06:46:08.379Z,962.8
2023-05-16T06:48:07.176Z,797.7
2023-05-16T06:50:53.507Z,1033.2
2023-05-16T06:53:26.018Z,1080.3
2023-05-16T06:55:44.806Z,702
2023-05-16T06:57:49.583Z,976.6
2023-05-16T07:00:42.131Z,938.2
2023-05-16T07:03:20.919Z,774.7
2023-05-16T07:05:45.651Z,1552
2023-05-16T07:07:56.426Z,1152.6
2023-05-16T07:09:53.302Z,1266.8
2023-05-16T07:12:37.708Z,1084.8
2023-05-16T07:15:08.630Z,971.2
2023-05-16T07:17:25.453Z,1351.6
2023-05-16T07:19:28.430Z,1151.3
2023-05-16T07:22:19.259Z,1199
2023-05-16T07:24:56.240Z,1290.5
2023-05-16T07:27:21.003Z,1297.9
2023-05-16T07:29:28.507Z,1303.3
2023-05-16T07:32:25.479Z,1345.9
2023-05-16T07:35:08.474Z,1304.6
2023-05-16T07:37:37.592Z,1384.3
2023-05-16T07:39:52.638Z,966.4
2023-05-16T07:41:53.902Z,828.1
2023-05-16T07:44:43.029Z,1081.2
2023-05-16T07:47:18.201Z,882.2
2023-05-16T07:49:39.405Z,936.6
2023-05-16T07:51:46.836Z,661.7
2023-05-16T07:54:42.064Z,710
2023-05-16T07:57:24.842Z,980.8
2023-05-16T07:59:50.947Z,954.2
2023-05-16T08:02:04.340Z,913.2
2023-05-16T08:04:03.349Z,892.4
2023-05-16T08:06:50.621Z,945.9
2023-05-16T08:09:24.001Z,1020.1
2023-05-16T08:11:43.297Z,1128.3
2023-05-16T08:13:48.737Z,1299.5
2023-05-16T08:16:42.017Z,1106.5
2023-05-16T08:19:21.210Z,1342.7
2023-05-16T08:21:46.384Z,1347.8
2023-05-16T08:23:57.823Z,870
2023-05-16T08:25:55.311Z,684.1
2023-05-16T08:28:40.516Z,562.2
2023-05-16T08:31:12.057Z,630.4
2023-05-16T08:33:29.536Z,607.3
2023-05-16T08:35:34.126Z,724.4
2023-05-16T08:38:24.631Z,485.7
2023-05-16T08:41:02.189Z,667.8
2023-05-16T08:43:25.765Z,636.9
2023-05-16T08:45:35.602Z,563.5
2023-05-16T08:47:31.436Z,669.1
2023-05-16T08:50:14.999Z,1077.7
2023-05-16T08:52:44.564Z,976
2023-05-16T08:55:09.787Z,800.6
2023-05-16T08:57:01.779Z,1032.3
2023-05-16T08:59:51.369Z,963.2
2023-05-16T09:02:27.241Z,1233.2
2023-05-16T09:04:49.071Z,1236.4
2023-05-16T09:06:56.928Z,1197.1
2023-05-16T09:09:52.813Z,1376
2023-05-16T09:12:34.641Z,1832
2023-05-16T09:15:02.574Z,2289
2023-05-16T09:17:18.405Z,2731
2023-05-16T09:19:16.895Z,2882
2023-05-16T09:22:04.537Z,3479
2023-05-16T09:24:38.457Z,4350
2023-05-16T09:26:58.600Z,4701
2023-05-16T09:29:04.775Z,4495
2023-05-16T09:31:58.633Z,3850
2023-05-16T09:34:38.749Z,5373
2023-05-16T09:37:04.824Z,5027
2023-05-16T09:39:17.025Z,3214
2023-05-16T09:41:15.394Z,4222
2023-05-16T09:44:01.785Z,5644
2023-05-16T09:46:33.472Z,5191
2023-05-16T09:48:51.849Z,4637
2023-05-16T09:50:56.567Z,4751
2023-05-16T09:53:49.178Z,5090
2023-05-16T09:56:27.731Z,5580
2023-05-16T09:58:52.591Z,5967
2023-05-16T10:01:03.502Z,6366
2023-05-16T10:03:02.323Z,5742
2023-05-16T10:05:45.339Z,4394
2023-05-16T10:08:16.324Z,4683
2023-05-16T10:10:33.394Z,3491
2023-05-16T10:12:36.447Z,2794
2023-05-16T10:15:27.717Z,2455
2023-05-16T10:18:04.480Z,2222
2023-05-16T10:20:27.402Z,1493.7
2023-05-16T10:22:36.619Z,2227
2023-05-16T10:25:35.535Z,2670
2023-05-16T10:28:16.815Z,3713
2023-05-16T10:30:46.126Z,3288
2023-05-16T10:33:01.396Z,2320
2023-05-16T10:35:02.572Z,3226
2023-05-16T10:37:51.478Z,4349
2023-05-16T10:40:26.857Z,3783
2023-05-16T10:42:48.081Z,3728
2023-05-16T10:45:04.731Z,3582
2023-05-16T10:47:51.002Z,4087
2023-05-16T10:50:32.424Z,4616
2023-05-16T10:52:59.795Z,4599
2023-05-16T10:55:13.479Z,4023
2023-05-16T10:57:12.806Z,4020
2023-05-16T11:00:00.141Z,4213
2023-05-16T11:02:33.810Z,4174
2023-05-16T11:04:53.192Z,3823
2023-05-16T11:06:58.637Z,4200
2023-05-16T11:09:52.217Z,4158
2023-05-16T11:12:31.837Z,3496
2023-05-16T11:14:57.390Z,3874
2023-05-16T11:17:09.039Z,3855
2023-05-16T11:19:06.748Z,3873
2023-05-16T11:21:52.362Z,4125
2023-05-16T11:24:24.097Z,4407
2023-05-16T11:26:41.907Z,4517
2023-05-16T11:28:45.233Z,4628
2023-05-16T11:31:36.906Z,4579
2023-05-16T11:34:14.749Z,4689
2023-05-16T11:36:38.682Z,4747
2023-05-16T11:38:48.597Z,4631
2023-05-16T11:40:44.672Z,4573
2023-05-16T11:43:28.602Z,4820
2023-05-16T11:45:58.569Z,4954
2023-05-16T11:48:21.940Z,5048
2023-05-16T11:50:16.634Z,5273
2023-05-16T11:53:07.750Z,5365
2023-05-16T11:55:42.886Z,4832
2023-05-16T11:58:05.008Z,3715
2023-05-16T12:00:13.269Z,3107
2023-05-16T12:03:09.308Z,3095
2023-05-16T12:05:51.629Z,5747
2023-05-16T12:08:19.857Z,5393
2023-05-16T12:10:34.169Z,2717
2023-05-16T12:12:34.516Z,2022
2023-05-16T12:15:22.927Z,1884
2023-05-16T12:17:57.326Z,3619
2023-05-16T12:20:17.154Z,2950
2023-05-16T12:22:24.003Z,3613
2023-05-16T12:25:18.087Z,2671
2023-05-16T12:27:58.413Z,3293
2023-05-16T12:30:24.999Z,3347
2023-05-16T12:32:37.586Z,3426
2023-05-16T12:34:35.971Z,3517
2023-05-16T12:37:22.587Z,3541
2023-05-16T12:39:55.150Z,3925
2023-05-16T12:42:13.677Z,3718
2023-05-16T12:44:18.433Z,2909
2023-05-16T12:47:11.025Z,3466
2023-05-16T12:49:49.635Z,3855
2023-05-16T12:52:15.163Z,3582
2023-05-16T12:54:25.024Z,2949
2023-05-16T12:56:21.857Z,1909
2023-05-16T12:59:06.565Z,3662
2023-05-16T13:01:37.468Z,3334
2023-05-16T13:03:54.361Z,3397
2023-05-16T13:05:57.214Z,3475
2023-05-16T13:08:48.133Z,3933
2023-05-16T13:11:24.641Z,1936
2023-05-16T13:13:47.473Z,2009
2023-05-16T13:15:56.649Z,3631
2023-05-16T13:18:53.571Z,3456
2023-05-16T13:21:36.528Z,3754
2023-05-16T13:24:05.411Z,3357
2023-05-16T13:26:20.500Z,3340
2023-05-16T13:28:21.587Z,1759
2023-05-16T13:31:10.534Z,1808
2023-05-16T13:33:45.684Z,2878
2023-05-16T13:36:08.993Z,3079
2023-05-16T13:38:13.999Z,2791
2023-05-16T13:41:09.234Z,3336
2023-05-16T13:43:50.419Z,4377
2023-05-16T13:46:17.654Z,4198
2023-05-16T13:48:30.827Z,3374
2023-05-16T13:50:33.020Z,4138
2023-05-16T13:53:17.398Z,2792
2023-05-16T13:55:50.610Z,2228
2023-05-16T13:58:10.062Z,2255
2023-05-16T14:00:31.583Z,2512
2023-05-16T14:03:08.319Z,2950
2023-05-16T14:05:47.657Z,4364
2023-05-16T14:08:13.087Z,3717
2023-05-16T14:10:24.474Z,3728
2023-05-16T14:12:22.091Z,2302
2023-05-16T14:15:07.528Z,1923
2023-05-16T14:17:20.094Z,2904
2023-05-16T14:19:19.659Z,2591
2023-05-16T14:22:05.157Z,1569.9
2023-05-16T14:24:37.882Z,3256
2023-05-16T14:26:56.603Z,3578
2023-05-16T14:29:01.289Z,3331
2023-05-16T14:31:54.142Z,1735
2023-05-16T14:34:32.849Z,1614
2023-05-16T14:36:57.583Z,1662
2023-05-16T14:39:08.545Z,3280
2023-05-16T14:41:05.543Z,3441
2023-05-16T14:43:50.356Z,3020
2023-05-16T14:46:21.294Z,1497.6
2023-05-16T14:48:38.218Z,1548.8
2023-05-16T14:50:41.203Z,1583.3
2023-05-16T14:53:31.654Z,1897
2023-05-16T14:56:08.766Z,1654
2023-05-16T14:58:31.850Z,1527
2023-05-16T15:00:40.945Z,2606
2023-05-16T15:03:51.088Z,2750
2023-05-16T15:06:21.338Z,3403
2023-05-16T15:08:50.526Z,3237
2023-05-16T15:11:05.670Z,2257
2023-05-16T15:13:07.012Z,2619
2023-05-16T15:15:56.310Z,2869
2023-05-16T15:18:31.513Z,2924
2023-05-16T15:20:52.954Z,3130
2023-05-16T15:23:00.318Z,2942
2023-05-16T15:25:55.630Z,3155
2023-05-16T15:28:37.063Z,2768
2023-05-16T15:31:04.510Z,3036
2023-05-16T15:33:17.929Z,2263
2023-05-16T15:35:17.503Z,2462
2023-05-16T15:38:04.972Z,2352
2023-05-16T15:40:38.406Z,2086
2023-05-16T15:42:57.792Z,1269.7
2023-05-16T15:45:03.013Z,1199.3
2023-05-16T15:47:56.539Z,1468.8
2023-05-16T15:50:36.011Z,1450.8
2023-05-16T15:53:01.744Z,1806
2023-05-16T15:55:13.469Z,1663
2023-05-16T15:57:11.176Z,1625.6
2023-05-16T15:59:57.018Z,1575.6
2023-05-16T16:02:29.913Z,1523.8
2023-05-16T16:04:46.576Z,1416.9
2023-05-16T16:06:50.611Z,1449.6
2023-05-16T16:09:42.482Z,1273.2
2023-05-16T16:12:20.308Z,1376.6
2023-05-16T16:14:44.113Z,1352.9
2023-05-16T16:16:54.176Z,1335.6
2023-05-16T16:18:50.223Z,1317.1
2023-05-16T16:21:34.125Z,1301.4
2023-05-16T16:24:04.341Z,1305.6
2023-05-16T16:26:20.341Z,1309.1
2023-05-16T16:28:22.719Z,1660
2023-05-16T16:31:12.688Z,1898
2023-05-16T16:33:48.871Z,1991
2023-05-16T16:36:10.609Z,2148
2023-05-16T16:38:18.942Z,2092
2023-05-16T16:41:15.251Z,2087
2023-05-16T16:43:57.524Z,1979
2023-05-16T16:46:25.776Z,1925
2023-05-16T16:48:40.271Z,1685
2023-05-16T16:50:40.553Z,1634.5
2023-05-16T16:53:28.792Z,1399
2023-05-16T16:56:03.221Z,1320.9
2023-05-16T16:58:23.681Z,1279.3
2023-05-16T17:00:30.173Z,1205.7
2023-05-16T17:03:24.744Z,1218.2
2023-05-16T17:06:05.261Z,1248.6
2023-05-16T17:08:32.130Z,1160.9
2023-05-16T17:10:44.287Z,1155.8
2023-05-16T17:12:42.949Z,1087.3
2023-05-16T17:15:29.721Z,1160.3
2023-05-16T17:18:02.171Z,1023
2023-05-16T17:20:20.820Z,1013.4
2023-05-16T17:22:25.490Z,974.4
2023-05-16T17:25:18.200Z,1013.7
2023-05-16T17:27:56.515Z,1143
2023-05-16T17:30:21.419Z,907.5
2023-05-16T17:32:32.056Z,743
2023-05-16T17:34:28.982Z,687.6
2023-05-16T17:37:13.872Z,663.6
2023-05-16T17:39:44.734Z,727
2023-05-16T17:42:01.626Z,766
2023-05-16T17:44:04.702Z,766.4
2023-05-16T17:46:55.732Z,755.8
2023-05-16T17:49:32.683Z,754.5
2023-05-16T17:51:55.775Z,897.2
2023-05-16T17:54:04.851Z,1017.6
2023-05-16T17:57:01.707Z,1046.4
2023-05-16T17:59:45.019Z,806.7
2023-05-16T18:02:14.159Z,681.6
2023-05-16T18:04:29.330Z,680
2023-05-16T18:06:30.768Z,740.1
2023-05-16T18:09:20.032Z,762.5
2023-05-16T18:11:55.327Z,787.8
2023-05-16T18:14:16.643Z,664.9
2023-05-16T18:16:24.092Z,524.4
2023-05-16T18:19:19.214Z,479
2023-05-16T18:22:00.318Z,477.7
2023-05-16T18:24:27.814Z,412.4
2023-05-16T18:26:43.275Z,389.1
2023-05-16T18:28:40.875Z,364.6
2023-05-16T18:31:28.569Z,339.5
2023-05-16T18:34:02.218Z,310.7
2023-05-16T18:36:21.801Z,291.3
2023-05-16T18:38:32.361Z,267.6
2023-05-16T18:41:21.308Z,238.4
2023-05-16T18:44:00.904Z,215.5
2023-05-16T18:46:26.477Z,195.6
2023-05-16T18:48:38.318Z,175.4
2023-05-16T18:50:36.149Z,158.92
2023-05-16T18:53:21.841Z,136.08
2023-05-16T18:55:55.059Z,117.84
2023-05-16T18:58:11.688Z,104.44
2023-05-16T19:00:15.599Z,89
2023-05-16T19:03:07.664Z,71.86
2023-05-16T19:05:45.717Z,59.24
2023-05-16T19:08:09.558Z,48.46
2023-05-16T19:10:19.198Z,38.78
2023-05-16T19:12:15.272Z,32.12
2023-05-16T19:14:59.289Z,24.9
2023-05-16T19:17:29.351Z,19.18
2023-05-16T19:19:45.588Z,14.45
2023-05-16T19:21:47.833Z,11.49
2023-05-16T19:24:37.851Z,8
2023-05-16T19:27:14.019Z,5.49
2023-05-16T19:29:36.165Z,4.23
2023-05-16T19:31:44.167Z,3.05
2023-05-16T19:34:40.337Z,2.04
2023-05-16T19:37:22.353Z,1.47
2023-05-16T19:39:50.475Z,0.98
2023-05-16T19:42:07.244Z,0.76
2023-05-16T19:44:04.675Z,0.57
2023-05-16T19:46:52.416Z,0.39
2023-05-16T19:49:26.761Z,0.3
2023-05-16T19:51:46.313Z,0.21
2023-05-16T19:53:52.371Z,0.15
2023-05-16T19:56:46.198Z,0.1
2023-05-16T19:59:26.258Z,0.07
2023-05-16T20:01:51.906Z,0.06
2023-05-16T20:04:04.351Z,0.05
2023-05-16T20:06:02.381Z,0.04
2023-05-16T20:08:48.494Z,0.03
2023-05-16T20:11:20.640Z,0.1
2023-05-16T20:13:38.720Z,0.09
2023-05-16T20:18:35.426Z,0.02
2023-05-16T20:33:00.163Z,0.01
2023-05-16T22:20:15.128Z,0
2023-05-16T22:32:52.191Z,0.01
2023-05-16T22:49:50.348Z,0
2023-05-16T22:52:30.864Z,0.01
2023-05-16T22:57:10.135Z,0
2023-05-16T23:38:22.740Z,0.01
2023-05-16T23:40:32.040Z,0
2023-05-16T23:43:29.230Z,0.01
